sensor_id;sensor_type;location;lat;lon;timestamp;pressure;altitude;pressure_sealevel;temperature;humidity
61324;BME280;47203;48.428;11.974;2023-02-15T00:01:06;98212.63;;;6.58;47.68
61324;BME280;47203;48.428;11.974;2023-02-15T00:03:11;98222.09;;;6.59;47.75
61324;BME280;47203;48.428;11.974;2023-02-15T00:05:16;98224.72;;;6.59;47.32
61324;BME280;47203;48.428;11.974;2023-02-15T00:07:21;98213.44;;;6.58;47.44
61324;BME280;47203;48.428;11.974;2023-02-15T00:09:25;98214.84;;;6.61;47.71
61324;BME280;47203;48.428;11.974;2023-02-15T00:11:30;98212.84;;;6.63;47.42
61324;BME280;47203;48.428;11.974;2023-02-15T00:13:44;98213.22;;;6.67;47.39
61324;BME280;47203;48.428;11.974;2023-02-15T00:15:51;98215.66;;;6.68;47.29
61324;BME280;47203;48.428;11.974;2023-02-15T00:17:56;98220.09;;;6.68;47.42
61324;BME280;47203;48.428;11.974;2023-02-15T00:20:01;98226.13;;;6.68;47.32
61324;BME280;47203;48.428;11.974;2023-02-15T00:22:05;98221.88;;;6.67;47.22
61324;BME280;47203;48.428;11.974;2023-02-15T00:24:11;98217.66;;;6.66;47.46
61324;BME280;47203;48.428;11.974;2023-02-15T00:26:16;98212.63;;;6.64;47.28
61324;BME280;47203;48.428;11.974;2023-02-15T00:28:21;98213.84;;;6.62;47.22
61324;BME280;47203;48.428;11.974;2023-02-15T00:30:26;98205.19;;;6.61;47.46
61324;BME280;47203;48.428;11.974;2023-02-15T00:32:33;98214.03;;;6.60;47.52
61324;BME280;47203;48.428;11.974;2023-02-15T00:34:38;98206.41;;;6.59;47.25
61324;BME280;47203;48.428;11.974;2023-02-15T00:36:42;98205.78;;;6.57;47.45
61324;BME280;47203;48.428;11.974;2023-02-15T00:38:48;98210.63;;;6.53;47.51
61324;BME280;47203;48.428;11.974;2023-02-15T00:40:52;98193.72;;;6.49;47.59
61324;BME280;47203;48.428;11.974;2023-02-15T00:42:57;98200.75;;;6.49;47.33
61324;BME280;47203;48.428;11.974;2023-02-15T00:45:03;98199.16;;;6.47;47.70
61324;BME280;47203;48.428;11.974;2023-02-15T00:47:07;98195.94;;;6.45;47.79
61324;BME280;47203;48.428;11.974;2023-02-15T00:49:15;98196.13;;;6.44;47.72
61324;BME280;47203;48.428;11.974;2023-02-15T00:51:19;98191.09;;;6.42;47.44
61324;BME280;47203;48.428;11.974;2023-02-15T00:53:25;98190.09;;;6.43;47.77
61324;BME280;47203;48.428;11.974;2023-02-15T00:55:29;98191.72;;;6.44;47.64
61324;BME280;47203;48.428;11.974;2023-02-15T00:57:34;98188.09;;;6.45;47.71
61324;BME280;47203;48.428;11.974;2023-02-15T00:59:39;98181.25;;;6.44;47.52
61324;BME280;47203;48.428;11.974;2023-02-15T01:01:43;98185.84;;;6.42;47.50
61324;BME280;47203;48.428;11.974;2023-02-15T01:03:48;98186.88;;;6.41;47.46
61324;BME280;47203;48.428;11.974;2023-02-15T01:05:55;98180.81;;;6.41;47.52
61324;BME280;47203;48.428;11.974;2023-02-15T01:08:01;98176.63;;;6.40;47.60
61324;BME280;47203;48.428;11.974;2023-02-15T01:10:06;98174.81;;;6.40;47.77
61324;BME280;47203;48.428;11.974;2023-02-15T01:12:11;98170.97;;;6.43;47.71
61324;BME280;47203;48.428;11.974;2023-02-15T01:14:16;98168.75;;;6.46;47.79
61324;BME280;47203;48.428;11.974;2023-02-15T01:16:21;98166.75;;;6.49;47.60
61324;BME280;47203;48.428;11.974;2023-02-15T01:18:26;98155.28;;;6.50;47.35
61324;BME280;47203;48.428;11.974;2023-02-15T01:20:33;98163.75;;;6.52;47.27
61324;BME280;47203;48.428;11.974;2023-02-15T01:22:42;98156.88;;;6.51;47.37
61324;BME280;47203;48.428;11.974;2023-02-15T01:24:48;98160.72;;;6.48;47.37
61324;BME280;47203;48.428;11.974;2023-02-15T01:26:53;98158.50;;;6.45;47.22
61324;BME280;47203;48.428;11.974;2023-02-15T01:28:57;98165.13;;;6.41;47.49
61324;BME280;47203;48.428;11.974;2023-02-15T01:31:04;98156.31;;;6.35;47.44
61324;BME280;47203;48.428;11.974;2023-02-15T01:33:09;98144.00;;;6.29;47.61
61324;BME280;47203;48.428;11.974;2023-02-15T01:35:20;98154.09;;;6.25;47.77
61324;BME280;47203;48.428;11.974;2023-02-15T01:37:24;98153.47;;;6.23;47.51
61324;BME280;47203;48.428;11.974;2023-02-15T01:39:31;98149.47;;;6.21;47.67
61324;BME280;47203;48.428;11.974;2023-02-15T01:41:36;98147.63;;;6.21;47.69
61324;BME280;47203;48.428;11.974;2023-02-15T01:43:41;98151.66;;;6.24;47.89
61324;BME280;47203;48.428;11.974;2023-02-15T01:45:47;98151.47;;;6.25;47.86
61324;BME280;47203;48.428;11.974;2023-02-15T01:47:54;98151.25;;;6.27;47.86
61324;BME280;47203;48.428;11.974;2023-02-15T01:50:02;98151.25;;;6.27;47.77
61324;BME280;47203;48.428;11.974;2023-02-15T01:52:07;98144.22;;;6.27;47.88
61324;BME280;47203;48.428;11.974;2023-02-15T01:54:15;98146.63;;;6.29;47.67
61324;BME280;47203;48.428;11.974;2023-02-15T01:56:27;98131.75;;;6.29;47.53
61324;BME280;47203;48.428;11.974;2023-02-15T01:58:34;98131.75;;;6.29;47.63
61324;BME280;47203;48.428;11.974;2023-02-15T02:00:39;98122.09;;;6.30;47.51
61324;BME280;47203;48.428;11.974;2023-02-15T02:02:44;98126.13;;;6.33;47.45
61324;BME280;47203;48.428;11.974;2023-02-15T02:04:50;98120.06;;;6.32;47.43
61324;BME280;47203;48.428;11.974;2023-02-15T02:06:57;98122.28;;;6.28;47.38
61324;BME280;47203;48.428;11.974;2023-02-15T02:09:02;98121.72;;;6.26;47.53
61324;BME280;47203;48.428;11.974;2023-02-15T02:11:09;98115.44;;;6.27;47.57
61324;BME280;47203;48.428;11.974;2023-02-15T02:13:16;98122.28;;;6.28;47.45
61324;BME280;47203;48.428;11.974;2023-02-15T02:15:21;98111.63;;;6.30;47.53
61324;BME280;47203;48.428;11.974;2023-02-15T02:17:30;98103.78;;;6.30;47.31
61324;BME280;47203;48.428;11.974;2023-02-15T02:22:12;98110.63;;;6.24;47.51
61324;BME280;47203;48.428;11.974;2023-02-15T02:24:36;98106.41;;;6.23;47.60
61324;BME280;47203;48.428;11.974;2023-02-15T02:31:52;98104.00;;;6.28;47.76
61324;BME280;47203;48.428;11.974;2023-02-15T02:34:04;98103.59;;;6.32;47.68
61324;BME280;47203;48.428;11.974;2023-02-15T02:36:17;98108.81;;;6.32;47.51
61324;BME280;47203;48.428;11.974;2023-02-15T02:38:26;98105.78;;;6.35;47.33
61324;BME280;47203;48.428;11.974;2023-02-15T02:40:34;98105.59;;;6.36;47.32
61324;BME280;47203;48.428;11.974;2023-02-15T02:42:43;98110.81;;;6.36;47.38
61324;BME280;47203;48.428;11.974;2023-02-15T02:44:49;98100.78;;;6.33;47.43
61324;BME280;47203;48.428;11.974;2023-02-15T02:46:57;98101.19;;;6.30;47.26
61324;BME280;47203;48.428;11.974;2023-02-15T02:49:06;98100.78;;;6.26;47.23
61324;BME280;47203;48.428;11.974;2023-02-15T02:51:10;98092.53;;;6.23;47.31
61324;BME280;47203;48.428;11.974;2023-02-15T02:53:16;98099.38;;;6.17;47.48
61324;BME280;47203;48.428;11.974;2023-02-15T02:55:21;98100.38;;;6.16;47.62
61324;BME280;47203;48.428;11.974;2023-02-15T02:57:28;98099.97;;;6.13;47.55
61324;BME280;47203;48.428;11.974;2023-02-15T02:59:33;98099.38;;;6.10;47.59
61324;BME280;47203;48.428;11.974;2023-02-15T03:01:40;98097.75;;;6.09;47.58
61324;BME280;47203;48.428;11.974;2023-02-15T03:03:47;98091.53;;;6.10;47.79
61324;BME280;47203;48.428;11.974;2023-02-15T03:05:56;98089.50;;;6.13;47.66
61324;BME280;47203;48.428;11.974;2023-02-15T03:08:02;98079.06;;;6.13;47.56
61324;BME280;47203;48.428;11.974;2023-02-15T03:10:11;98080.69;;;6.14;47.67
61324;BME280;47203;48.428;11.974;2023-02-15T03:12:17;98076.25;;;6.14;47.51
61324;BME280;47203;48.428;11.974;2023-02-15T03:14:23;98069.19;;;6.15;47.79
61324;BME280;47203;48.428;11.974;2023-02-15T03:16:28;98072.44;;;6.17;47.56
61324;BME280;47203;48.428;11.974;2023-02-15T03:18:31;98073.03;;;6.19;47.71
61324;BME280;47203;48.428;11.974;2023-02-15T03:20:38;98073.63;;;6.21;47.65
61324;BME280;47203;48.428;11.974;2023-02-15T03:22:46;98086.72;;;6.21;47.45
61324;BME280;47203;48.428;11.974;2023-02-15T03:24:53;98088.28;;;6.22;47.45
61324;BME280;47203;48.428;11.974;2023-02-15T03:27:01;98091.53;;;6.24;47.59
61324;BME280;47203;48.428;11.974;2023-02-15T03:29:07;98095.94;;;6.23;47.47
61324;BME280;47203;48.428;11.974;2023-02-15T03:31:14;98094.94;;;6.24;47.34
61324;BME280;47203;48.428;11.974;2023-02-15T03:33:21;98105.41;;;6.24;47.28
61324;BME280;47203;48.428;11.974;2023-02-15T03:35:29;98095.94;;;6.23;47.29
61324;BME280;47203;48.428;11.974;2023-02-15T03:37:37;98098.75;;;6.22;47.35
61324;BME280;47203;48.428;11.974;2023-02-15T03:39:47;98097.16;;;6.21;47.50
61324;BME280;47203;48.428;11.974;2023-02-15T03:41:55;98094.97;;;6.18;47.56
61324;BME280;47203;48.428;11.974;2023-02-15T03:43:59;98094.75;;;6.19;47.45
61324;BME280;47203;48.428;11.974;2023-02-15T03:46:10;98100.56;;;6.21;47.60
61324;BME280;47203;48.428;11.974;2023-02-15T03:48:16;98095.94;;;6.23;47.51
61324;BME280;47203;48.428;11.974;2023-02-15T03:50:22;98096.75;;;6.24;47.49
61324;BME280;47203;48.428;11.974;2023-02-15T03:52:41;98098.56;;;6.23;47.50
61324;BME280;47203;48.428;11.974;2023-02-15T03:54:48;98090.91;;;6.22;47.52
61324;BME280;47203;48.428;11.974;2023-02-15T03:56:53;98088.28;;;6.22;47.28
61324;BME280;47203;48.428;11.974;2023-02-15T03:59:10;98096.13;;;6.22;47.54
61324;BME280;47203;48.428;11.974;2023-02-15T04:01:29;98096.34;;;6.20;47.21
61324;BME280;47203;48.428;11.974;2023-02-15T04:03:51;98101.78;;;6.19;47.59
61324;BME280;47203;48.428;11.974;2023-02-15T04:05:59;98096.16;;;6.15;47.55
61324;BME280;47203;48.428;11.974;2023-02-15T04:08:05;98103.59;;;6.11;47.35
61324;BME280;47203;48.428;11.974;2023-02-15T04:10:12;98102.19;;;6.09;47.65
61324;BME280;47203;48.428;11.974;2023-02-15T04:12:30;98094.72;;;6.06;47.62
61324;BME280;47203;48.428;11.974;2023-02-15T04:14:34;98099.38;;;6.04;47.68
61324;BME280;47203;48.428;11.974;2023-02-15T04:16:51;98098.78;;;6.02;47.66
61324;BME280;47203;48.428;11.974;2023-02-15T04:18:56;98090.31;;;6.00;47.60
61324;BME280;47203;48.428;11.974;2023-02-15T04:21:13;98096.38;;;6.00;47.57
61324;BME280;47203;48.428;11.974;2023-02-15T04:23:30;98087.69;;;6.00;47.91
61324;BME280;47203;48.428;11.974;2023-02-15T04:25:50;98093.53;;;6.02;47.57
61324;BME280;47203;48.428;11.974;2023-02-15T04:27:54;98093.34;;;6.03;47.43
61324;BME280;47203;48.428;11.974;2023-02-15T04:29:59;98098.16;;;6.06;47.37
61324;BME280;47203;48.428;11.974;2023-02-15T04:32:04;98104.00;;;6.08;47.38
61324;BME280;47203;48.428;11.974;2023-02-15T04:34:09;98099.75;;;6.07;47.43
61324;BME280;47203;48.428;11.974;2023-02-15T04:36:13;98096.56;;;6.05;47.48
61324;BME280;47203;48.428;11.974;2023-02-15T04:38:18;98094.13;;;6.04;47.54
61324;BME280;47203;48.428;11.974;2023-02-15T04:40:23;98087.91;;;6.05;47.59
61324;BME280;47203;48.428;11.974;2023-02-15T04:42:31;98088.91;;;6.04;47.58
61324;BME280;47203;48.428;11.974;2023-02-15T04:44:35;98091.53;;;6.04;47.49
61324;BME280;47203;48.428;11.974;2023-02-15T04:46:40;98090.09;;;6.01;47.57
61324;BME280;47203;48.428;11.974;2023-02-15T04:48:44;98087.69;;;6.00;47.69
61324;BME280;47203;48.428;11.974;2023-02-15T04:50:49;98088.53;;;6.00;47.59
61324;BME280;47203;48.428;11.974;2023-02-15T04:52:53;98100.78;;;6.00;47.54
61324;BME280;47203;48.428;11.974;2023-02-15T04:54:58;98089.72;;;5.98;47.42
61324;BME280;47203;48.428;11.974;2023-02-15T04:57:03;98088.28;;;5.95;47.77
61324;BME280;47203;48.428;11.974;2023-02-15T04:59:12;98093.72;;;5.93;47.51
61324;BME280;47203;48.428;11.974;2023-02-15T05:01:16;98094.91;;;5.91;47.58
61324;BME280;47203;48.428;11.974;2023-02-15T05:03:21;98095.94;;;5.90;47.65
61324;BME280;47203;48.428;11.974;2023-02-15T05:05:26;98092.50;;;5.89;47.67
61324;BME280;47203;48.428;11.974;2023-02-15T05:07:30;98093.13;;;5.91;47.59
61324;BME280;47203;48.428;11.974;2023-02-15T05:09:35;98096.53;;;5.92;47.51
61324;BME280;47203;48.428;11.974;2023-02-15T05:11:43;98092.09;;;5.92;47.64
61324;BME280;47203;48.428;11.974;2023-02-15T05:13:48;98097.31;;;5.92;47.50
61324;BME280;47203;48.428;11.974;2023-02-15T05:15:55;98092.69;;;5.88;47.61
61324;BME280;47203;48.428;11.974;2023-02-15T05:17:59;98100.53;;;5.81;47.58
61324;BME280;47203;48.428;11.974;2023-02-15T05:20:05;98095.69;;;5.78;47.74
61324;BME280;47203;48.428;11.974;2023-02-15T05:22:09;98095.09;;;5.76;47.68
61324;BME280;47203;48.428;11.974;2023-02-15T05:24:14;98094.50;;;5.74;47.88
61324;BME280;47203;48.428;11.974;2023-02-15T05:26:31;98092.47;;;5.76;47.78
61324;BME280;47203;48.428;11.974;2023-02-15T05:28:48;98096.50;;;5.79;47.92
61324;BME280;47203;48.428;11.974;2023-02-15T05:31:00;98097.09;;;5.81;47.86
61324;BME280;47203;48.428;11.974;2023-02-15T05:33:06;98095.13;;;5.83;47.66
61324;BME280;47203;48.428;11.974;2023-02-15T05:35:11;98089.88;;;5.83;47.67
61324;BME280;47203;48.428;11.974;2023-02-15T05:37:17;98096.28;;;5.87;47.84
61324;BME280;47203;48.428;11.974;2023-02-15T05:39:21;98094.31;;;5.89;47.59
61324;BME280;47203;48.428;11.974;2023-02-15T05:41:26;98099.13;;;5.92;47.52
61324;BME280;47203;48.428;11.974;2023-02-15T05:43:30;98094.28;;;5.95;47.65
61324;BME280;47203;48.428;11.974;2023-02-15T05:45:35;98096.56;;;5.99;47.69
61324;BME280;47203;48.428;11.974;2023-02-15T05:47:42;98096.38;;;6.00;47.56
61324;BME280;47203;48.428;11.974;2023-02-15T05:49:47;98102.19;;;6.02;47.57
61324;BME280;47203;48.428;11.974;2023-02-15T05:51:51;98101.19;;;6.03;47.21
61324;BME280;47203;48.428;11.974;2023-02-15T05:53:56;98099.97;;;6.06;47.48
61324;BME280;47203;48.428;11.974;2023-02-15T05:56:01;98105.19;;;6.06;47.16
61324;BME280;47203;48.428;11.974;2023-02-15T05:58:06;98108.00;;;6.04;47.37
61324;BME280;47203;48.428;11.974;2023-02-15T06:00:11;98109.19;;;5.95;47.25
61324;BME280;47203;48.428;11.974;2023-02-15T06:02:16;98103.16;;;5.81;47.12
61324;BME280;47203;48.428;11.974;2023-02-15T06:04:24;98107.13;;;5.64;47.27
61324;BME280;47203;48.428;11.974;2023-02-15T06:06:28;98111.31;;;5.51;47.55
61324;BME280;47203;48.428;11.974;2023-02-15T06:08:33;98112.69;;;5.47;47.68
61324;BME280;47203;48.428;11.974;2023-02-15T06:10:38;98111.13;;;5.46;47.85
61324;BME280;47203;48.428;11.974;2023-02-15T06:12:43;98111.13;;;5.46;47.90
61324;BME280;47203;48.428;11.974;2023-02-15T06:14:48;98108.31;;;5.48;47.81
61324;BME280;47203;48.428;11.974;2023-02-15T06:16:52;98113.94;;;5.51;47.76
61324;BME280;47203;48.428;11.974;2023-02-15T06:18:57;98125.78;;;5.54;47.77
61324;BME280;47203;48.428;11.974;2023-02-15T06:21:05;98116.75;;;5.56;48.00
61324;BME280;47203;48.428;11.974;2023-02-15T06:23:10;98124.00;;;5.61;47.75
61324;BME280;47203;48.428;11.974;2023-02-15T06:25:15;98126.63;;;5.68;47.84
61324;BME280;47203;48.428;11.974;2023-02-15T06:27:20;98123.81;;;5.69;47.75
61324;BME280;47203;48.428;11.974;2023-02-15T06:29:24;98124.22;;;5.73;47.56
61324;BME280;47203;48.428;11.974;2023-02-15T06:31:29;98121.22;;;5.76;47.47
61324;BME280;47203;48.428;11.974;2023-02-15T06:33:33;98121.44;;;5.81;47.57
61324;BME280;47203;48.428;11.974;2023-02-15T06:35:38;98115.41;;;5.74;47.34
61324;BME280;47203;48.428;11.974;2023-02-15T06:37:45;98124.19;;;5.66;47.38
61324;BME280;47203;48.428;11.974;2023-02-15T06:39:49;98124.19;;;5.59;47.57
61324;BME280;47203;48.428;11.974;2023-02-15T06:41:54;98133.59;;;5.47;47.61
61324;BME280;47203;48.428;11.974;2023-02-15T06:43:58;98132.38;;;5.36;47.86
61324;BME280;47203;48.428;11.974;2023-02-15T06:46:03;98135.34;;;5.27;47.93
61324;BME280;47203;48.428;11.974;2023-02-15T06:48:07;98148.97;;;5.22;47.96
61324;BME280;47203;48.428;11.974;2023-02-15T06:50:12;98145.97;;;5.18;48.00
61324;BME280;47203;48.428;11.974;2023-02-15T06:52:17;98145.31;;;5.16;48.42
61324;BME280;47203;48.428;11.974;2023-02-15T06:54:24;98140.91;;;5.17;48.30
61324;BME280;47203;48.428;11.974;2023-02-15T06:56:29;98135.69;;;5.17;48.18
61324;BME280;47203;48.428;11.974;2023-02-15T06:58:34;98129.47;;;5.18;48.19
61324;BME280;47203;48.428;11.974;2023-02-15T07:00:39;98128.47;;;5.19;48.33
61324;BME280;47203;48.428;11.974;2023-02-15T07:02:44;98129.47;;;5.18;48.10
61324;BME280;47203;48.428;11.974;2023-02-15T07:04:49;98134.69;;;5.18;48.32
61324;BME280;47203;48.428;11.974;2023-02-15T07:06:54;98126.66;;;5.19;48.33
61324;BME280;47203;48.428;11.974;2023-02-15T07:08:58;98132.91;;;5.25;48.20
61324;BME280;47203;48.428;11.974;2023-02-15T07:11:06;98128.13;;;5.29;48.22
61324;BME280;47203;48.428;11.974;2023-02-15T07:13:23;98134.75;;;5.31;48.29
61324;BME280;47203;48.428;11.974;2023-02-15T07:15:28;98135.56;;;5.32;47.94
61324;BME280;47203;48.428;11.974;2023-02-15T07:17:32;98135.19;;;5.35;48.16
61324;BME280;47203;48.428;11.974;2023-02-15T07:19:37;98139.00;;;5.39;48.22
61324;BME280;47203;48.428;11.974;2023-02-15T07:21:42;98135.59;;;5.45;48.19
61324;BME280;47203;48.428;11.974;2023-02-15T07:23:47;98131.41;;;5.51;48.03
61324;BME280;47203;48.428;11.974;2023-02-15T07:25:55;98134.22;;;5.56;47.78
61324;BME280;47203;48.428;11.974;2023-02-15T07:28:04;98134.44;;;5.61;47.64
61324;BME280;47203;48.428;11.974;2023-02-15T07:30:12;98138.09;;;5.67;47.54
61324;BME280;47203;48.428;11.974;2023-02-15T07:32:17;98132.28;;;5.71;47.61
61324;BME280;47203;48.428;11.974;2023-02-15T07:34:23;98136.31;;;5.74;47.53
61324;BME280;47203;48.428;11.974;2023-02-15T07:36:27;98125.44;;;5.77;47.46
61324;BME280;47203;48.428;11.974;2023-02-15T07:38:32;98126.03;;;5.79;47.46
61324;BME280;47203;48.428;11.974;2023-02-15T07:40:37;98126.66;;;5.81;47.42
61324;BME280;47203;48.428;11.974;2023-02-15T07:42:42;98126.47;;;5.83;47.52
61324;BME280;47203;48.428;11.974;2023-02-15T07:44:49;98127.06;;;5.85;47.58
61324;BME280;47203;48.428;11.974;2023-02-15T07:46:54;98128.47;;;5.87;47.25
61324;BME280;47203;48.428;11.974;2023-02-15T07:48:58;98130.06;;;5.88;47.34
61324;BME280;47203;48.428;11.974;2023-02-15T07:51:04;98132.09;;;5.93;47.43
61324;BME280;47203;48.428;11.974;2023-02-15T07:53:08;98126.69;;;5.94;47.43
61324;BME280;47203;48.428;11.974;2023-02-15T07:55:13;98130.69;;;5.90;47.09
61324;BME280;47203;48.428;11.974;2023-02-15T07:57:18;98127.47;;;5.82;47.56
61324;BME280;47203;48.428;11.974;2023-02-15T07:59:22;98128.66;;;5.79;47.49
61324;BME280;47203;48.428;11.974;2023-02-15T08:01:30;98127.66;;;5.80;47.36
61324;BME280;47203;48.428;11.974;2023-02-15T08:03:36;98127.25;;;5.76;47.37
61324;BME280;47203;48.428;11.974;2023-02-15T08:05:41;98127.44;;;5.68;47.67
61324;BME280;47203;48.428;11.974;2023-02-15T08:07:46;98120.56;;;5.60;47.59
61324;BME280;47203;48.428;11.974;2023-02-15T08:09:51;98126.00;;;5.52;47.86
61324;BME280;47203;48.428;11.974;2023-02-15T08:11:55;98121.56;;;5.46;47.84
61324;BME280;47203;48.428;11.974;2023-02-15T08:14:00;98124.34;;;5.38;47.91
61324;BME280;47203;48.428;11.974;2023-02-15T08:16:06;98125.31;;;5.30;47.95
61324;BME280;47203;48.428;11.974;2023-02-15T08:18:17;98121.47;;;5.26;48.20
61324;BME280;47203;48.428;11.974;2023-02-15T08:20:21;98122.28;;;5.27;48.20
61324;BME280;47203;48.428;11.974;2023-02-15T08:22:26;98119.06;;;5.24;48.19
61324;BME280;47203;48.428;11.974;2023-02-15T08:24:31;98120.84;;;5.24;48.29
61324;BME280;47203;48.428;11.974;2023-02-15T08:26:38;98124.88;;;5.27;48.36
61324;BME280;47203;48.428;11.974;2023-02-15T08:28:43;98117.88;;;5.34;48.27
61324;BME280;47203;48.428;11.974;2023-02-15T08:30:48;98115.13;;;5.42;48.10
61324;BME280;47203;48.428;11.974;2023-02-15T08:32:53;98117.53;;;5.50;47.89
61324;BME280;47203;48.428;11.974;2023-02-15T08:35:00;98114.75;;;5.58;47.98
61324;BME280;47203;48.428;11.974;2023-02-15T08:37:04;98118.59;;;5.63;47.89
61324;BME280;47203;48.428;11.974;2023-02-15T08:39:09;98112.75;;;5.67;47.91
61324;BME280;47203;48.428;11.974;2023-02-15T08:41:15;98111.56;;;5.70;47.64
61324;BME280;47203;48.428;11.974;2023-02-15T08:43:20;98115.75;;;5.71;47.73
61324;BME280;47203;48.428;11.974;2023-02-15T08:45:25;98110.34;;;5.66;47.62
61324;BME280;47203;48.428;11.974;2023-02-15T08:47:29;98109.91;;;5.62;47.94
61324;BME280;47203;48.428;11.974;2023-02-15T08:49:34;98118.16;;;5.59;47.90
61324;BME280;47203;48.428;11.974;2023-02-15T08:51:42;98111.53;;;5.56;48.06
61324;BME280;47203;48.428;11.974;2023-02-15T08:53:47;98114.34;;;5.55;48.02
61324;BME280;47203;48.428;11.974;2023-02-15T08:55:55;98104.28;;;5.52;47.96
61324;BME280;47203;48.428;11.974;2023-02-15T08:58:00;98109.50;;;5.45;48.11
61324;BME280;47203;48.428;11.974;2023-02-15T09:00:06;98105.25;;;5.37;48.21
61324;BME280;47203;48.428;11.974;2023-02-15T09:02:11;98099.81;;;5.32;48.15
61324;BME280;47203;48.428;11.974;2023-02-15T09:04:15;98104.63;;;5.29;48.32
61324;BME280;47203;48.428;11.974;2023-02-15T09:06:21;98108.63;;;5.24;48.35
61324;BME280;47203;48.428;11.974;2023-02-15T09:08:28;98103.38;;;5.18;48.33
61324;BME280;47203;48.428;11.974;2023-02-15T09:10:34;98109.59;;;5.17;48.47
61324;BME280;47203;48.428;11.974;2023-02-15T09:12:38;98110.22;;;5.19;48.29
61324;BME280;47203;48.428;11.974;2023-02-15T09:14:43;98110.22;;;5.19;48.54
61324;BME280;47203;48.428;11.974;2023-02-15T09:16:47;98105.38;;;5.22;48.53
61324;BME280;47203;48.428;11.974;2023-02-15T09:18:53;98106.22;;;5.30;48.46
61324;BME280;47203;48.428;11.974;2023-02-15T09:21:03;98108.25;;;5.34;48.53
61324;BME280;47203;48.428;11.974;2023-02-15T09:23:08;98105.25;;;5.37;48.27
61324;BME280;47203;48.428;11.974;2023-02-15T09:25:29;98108.66;;;5.38;48.45
61324;BME280;47203;48.428;11.974;2023-02-15T09:27:34;98116.50;;;5.38;48.18
61324;BME280;47203;48.428;11.974;2023-02-15T09:29:40;98117.69;;;5.35;48.20
61324;BME280;47203;48.428;11.974;2023-02-15T09:31:44;98106.25;;;5.36;48.33
61324;BME280;47203;48.428;11.974;2023-02-15T09:33:50;98112.91;;;5.39;48.39
61324;BME280;47203;48.428;11.974;2023-02-15T09:35:55;98108.66;;;5.38;48.41
61324;BME280;47203;48.428;11.974;2023-02-15T09:38:00;98103.22;;;5.33;48.51
61324;BME280;47203;48.428;11.974;2023-02-15T09:40:05;98111.88;;;5.33;48.63
61324;BME280;47203;48.428;11.974;2023-02-15T09:44:53;98114.13;;;5.50;48.49
61324;BME280;47203;48.428;11.974;2023-02-15T09:47:09;98124.41;;;5.58;48.34
61324;BME280;47203;48.428;11.974;2023-02-15T09:49:20;98123.59;;;5.64;48.36
61324;BME280;47203;48.428;11.974;2023-02-15T09:51:37;98123.81;;;5.69;47.94
61324;BME280;47203;48.428;11.974;2023-02-15T09:53:49;98120.81;;;5.72;48.18
61324;BME280;47203;48.428;11.974;2023-02-15T09:55:57;98117.59;;;5.70;48.06
61324;BME280;47203;48.428;11.974;2023-02-15T09:58:07;98116.78;;;5.70;48.02
61324;BME280;47203;48.428;11.974;2023-02-15T10:00:16;98113.97;;;5.71;48.00
61324;BME280;47203;48.428;11.974;2023-02-15T10:02:29;98112.59;;;5.75;48.09
61324;BME280;47203;48.428;11.974;2023-02-15T10:04:38;98114.59;;;5.80;48.06
61324;BME280;47203;48.428;11.974;2023-02-15T10:06:48;98118.63;;;5.83;47.95
61324;BME280;47203;48.428;11.974;2023-02-15T10:09:07;98118.84;;;5.81;48.29
61324;BME280;47203;48.428;11.974;2023-02-15T10:11:15;98115.19;;;5.75;48.32
61324;BME280;47203;48.428;11.974;2023-02-15T10:13:34;98111.56;;;5.70;48.38
61324;BME280;47203;48.428;11.974;2023-02-15T10:15:49;98116.59;;;5.71;48.30
61324;BME280;47203;48.428;11.974;2023-02-15T10:18:01;98116.78;;;5.70;48.32
61324;BME280;47203;48.428;11.974;2023-02-15T10:20:11;98113.16;;;5.64;48.43
61324;BME280;47203;48.428;11.974;2023-02-15T10:22:22;98111.75;;;5.62;48.35
61324;BME280;47203;48.428;11.974;2023-02-15T10:24:39;98105.28;;;5.57;48.43
61324;BME280;47203;48.428;11.974;2023-02-15T10:26:49;98102.88;;;5.56;48.32
61324;BME280;47203;48.428;11.974;2023-02-15T10:28:55;98102.88;;;5.56;48.57
61324;BME280;47203;48.428;11.974;2023-02-15T10:31:07;98094.25;;;5.55;48.61
61324;BME280;47203;48.428;11.974;2023-02-15T10:33:19;98094.66;;;5.59;48.73
61324;BME280;47203;48.428;11.974;2023-02-15T10:35:32;98101.09;;;5.63;48.62
61324;BME280;47203;48.428;11.974;2023-02-15T10:37:50;98097.09;;;5.67;48.36
61324;BME280;47203;48.428;11.974;2023-02-15T10:40:00;98094.69;;;5.72;48.66
61324;BME280;47203;48.428;11.974;2023-02-15T10:42:10;98090.84;;;5.75;48.53
61324;BME280;47203;48.428;11.974;2023-02-15T10:44:24;98087.06;;;5.77;48.47
61324;BME280;47203;48.428;11.974;2023-02-15T10:49:00;98089.06;;;5.82;48.66
61324;BME280;47203;48.428;11.974;2023-02-15T10:51:08;98091.47;;;5.84;48.60
61324;BME280;47203;48.428;11.974;2023-02-15T10:53:23;98087.47;;;5.88;48.60
61324;BME280;47203;48.428;11.974;2023-02-15T10:55:34;98092.69;;;5.88;48.38
61324;BME280;47203;48.428;11.974;2023-02-15T10:57:43;98084.47;;;5.84;48.54
61324;BME280;47203;48.428;11.974;2023-02-15T11:02:16;98079.44;;;5.96;48.35
61324;BME280;47203;48.428;11.974;2023-02-15T11:04:34;98072.22;;;6.05;48.37
61324;BME280;47203;48.428;11.974;2023-02-15T11:06:44;98072.00;;;6.13;48.36
61324;BME280;47203;48.428;11.974;2023-02-15T11:08:53;98065.59;;;6.22;48.38
61324;BME280;47203;48.428;11.974;2023-02-15T11:10:59;98069.00;;;6.29;48.32
61324;BME280;47203;48.428;11.974;2023-02-15T11:13:08;98055.91;;;6.36;48.16
61324;BME280;47203;48.428;11.974;2023-02-15T11:15:15;98064.53;;;6.43;48.24
61324;BME280;47203;48.428;11.974;2023-02-15T11:17:24;98053.25;;;6.50;48.19
61324;BME280;47203;48.428;11.974;2023-02-15T11:19:30;98050.63;;;6.56;48.18
61324;BME280;47203;48.428;11.974;2023-02-15T11:21:39;98043.59;;;6.63;48.14
61324;BME280;47203;48.428;11.974;2023-02-15T11:23:45;98046.19;;;6.70;48.10
61324;BME280;47203;48.428;11.974;2023-02-15T11:25:52;98033.47;;;6.74;48.05
61324;BME280;47203;48.428;11.974;2023-02-15T11:27:58;98035.47;;;6.78;48.12